This is the latest recevied weather packets stored in our database for station/object DM0MR. If no packets are shown the sender has not sent any weather packets the latest 10 day(s).
| Time | Temp. | Humidity | Pressure | Rain* | Wind** | Luminosity | Snow |
|---|---|---|---|---|---|---|---|
| 1777468289 | 14.44° C | 25% | 1017.8 hPa | 0 mm | - | - | - |
| 1777467387 | 15° C | 26% | 1017.9 hPa | 0 mm | - | - | - |
| 1777466488 | 15° C | 28% | 1017.9 hPa | 0 mm | - | - | - |
| 1777465587 | 15° C | 28% | 1017.9 hPa | 0 mm | - | - | - |
| 1777464687 | 14.44° C | 28% | 1018 hPa | 0 mm | - | - | - |
| 1777463788 | 14.44° C | 27% | 1018 hPa | 0 mm | - | - | - |
| 1777462889 | 15° C | 27% | 1018 hPa | 0 mm | - | - | - |
| 1777461987 | 15° C | 28% | 1017.8 hPa | 0 mm | - | - | - |
| 1777461088 | 14.44° C | 29% | 1017.9 hPa | 0 mm | - | - | - |
| 1777460188 | 15° C | 32% | 1017.9 hPa | 0 mm | - | - | - |
| 1777459289 | 14.44° C | 34% | 1017.8 hPa | 0 mm | - | - | - |
| 1777458389 | 14.44° C | 36% | 1017.8 hPa | 0 mm | - | - | - |
| 1777457488 | 14.44° C | 37% | 1018 hPa | 0 mm | - | - | - |
| 1777456588 | 14.44° C | 38% | 1017.8 hPa | 0 mm | - | - | - |
| 1777455688 | 13.89° C | 39% | 1017.9 hPa | 0 mm | - | - | - |
| 1777454788 | 13.89° C | 42% | 1017.8 hPa | 0 mm | - | - | - |
| 1777452987 | 13.33° C | 43% | 1017.9 hPa | 0 mm | - | - | - |
| 1777451188 | 13.33° C | 45% | 1017.6 hPa | 0 mm | - | - | - |
| 1777449387 | 12.22° C | 42% | 1017.3 hPa | 0 mm | - | - | - |
| 1777446687 | 16.11° C | 36% | 1017 hPa | 0 mm | - | - | - |
| 1777444886 | 13.33° C | 38% | 1016.9 hPa | 0 mm | - | - | - |
| 1777443987 | 12.22° C | 43% | 1016.7 hPa | 0 mm | - | - | - |
| 1777443087 | 12.22° C | 44% | 1016.6 hPa | 0 mm | - | - | - |
| 1777442187 | 10.56° C | 50% | 1016.5 hPa | 0 mm | - | - | - |
| 1777441288 | 8.89° C | 52% | 1016.3 hPa | 0 mm | - | - | - |
* Rain latest hour (hover to see other rain measurements)
** Current wind speed in m/s (hover to see current wind gust speed)